createdAt,value
2023-04-09T00:01:08.002Z,100260.00
2023-04-09T00:03:36.323Z,100262.72
2023-04-09T00:06:04.796Z,100265.47
2023-04-09T00:08:32.233Z,100274.69
2023-04-09T00:11:00.022Z,100264.63
2023-04-09T00:13:38.445Z,100269.00
2023-04-09T00:16:08.115Z,100265.69
2023-04-09T00:18:35.687Z,100259.41
2023-04-09T00:21:03.170Z,100266.75
2023-04-09T00:23:31.064Z,100259.59
2023-04-09T00:25:58.503Z,100270.50
2023-04-09T00:28:26.066Z,100265.91
2023-04-09T00:30:53.748Z,100260.47
2023-04-09T00:33:21.287Z,100262.31
2023-04-09T00:35:48.704Z,100267.75
2023-04-09T00:38:16.408Z,100266.09
2023-04-09T00:40:44.040Z,100255.22
2023-04-09T00:43:12.116Z,100261.72
2023-04-09T00:45:39.854Z,100253.53
2023-04-09T00:48:07.447Z,100260.03
2023-04-09T00:50:34.927Z,100260.03
2023-04-09T00:53:02.688Z,100256.50
2023-04-09T00:55:30.220Z,100252.94
2023-04-09T00:57:57.666Z,100254.19
2023-04-09T01:00:25.573Z,100259.41
2023-04-09T01:02:54.884Z,100251.47
2023-04-09T01:05:22.390Z,100252.28
2023-04-09T01:08:01.344Z,100252.53
2023-04-09T01:10:32.761Z,100250.00
2023-04-09T01:13:16.321Z,100251.69
2023-04-09T01:15:56.519Z,100251.69
2023-04-09T01:18:33.098Z,100255.44
2023-04-09T01:21:36.461Z,100252.09
2023-04-09T01:24:47.417Z,100247.06
2023-04-09T01:27:16.317Z,100248.97
2023-04-09T01:29:48.008Z,100252.34
2023-04-09T01:32:17.143Z,100255.25
2023-04-09T01:34:46.085Z,100259.66
2023-04-09T01:37:13.549Z,100256.06
2023-04-09T01:39:41.116Z,100254.22
2023-04-09T01:42:11.239Z,100260.69
2023-04-09T01:44:39.413Z,100262.59
2023-04-09T01:47:08.509Z,100265.09
2023-04-09T01:49:36.401Z,100263.41
2023-04-09T01:52:03.997Z,100264.47
2023-04-09T01:54:31.497Z,100257.97
2023-04-09T01:56:59.366Z,100250.84
2023-04-09T01:59:26.894Z,100253.56
2023-04-09T02:01:57.536Z,100258.19
2023-04-09T02:04:40.410Z,100261.75
2023-04-09T02:07:14.718Z,100251.69
2023-04-09T02:09:42.702Z,100260.31
2023-04-09T02:12:12.471Z,100260.09
2023-04-09T02:14:40.150Z,100251.31
2023-04-09T02:17:07.965Z,100257.37
2023-04-09T02:19:45.962Z,100244.81
2023-04-09T02:22:14.356Z,100248.38
2023-04-09T02:24:41.820Z,100251.31
2023-04-09T02:27:09.338Z,100245.00
2023-04-09T02:29:39.673Z,100252.34
2023-04-09T02:32:07.296Z,100242.50
2023-04-09T02:34:34.817Z,100246.06
2023-04-09T02:37:02.794Z,100246.06
2023-04-09T02:39:30.343Z,100245.22
2023-04-09T02:41:58.034Z,100247.94
2023-04-09T02:44:26.947Z,100241.66
2023-04-09T02:46:54.715Z,100247.13
2023-04-09T02:49:22.179Z,100246.28
2023-04-09T02:51:49.899Z,100239.78
2023-04-09T02:54:17.395Z,100241.66
2023-04-09T02:56:44.866Z,100240.84
2023-04-09T02:59:12.975Z,100244.37
2023-04-09T03:01:40.498Z,100240.84
2023-04-09T03:04:08.301Z,100243.78
2023-04-09T03:06:36.246Z,100240.84
2023-04-09T03:09:03.807Z,100241.06
2023-04-09T03:11:31.712Z,100244.63
2023-04-09T03:13:59.472Z,100235.38
2023-04-09T03:16:27.046Z,100243.78
2023-04-09T03:18:54.680Z,100246.50
2023-04-09T03:21:22.472Z,100242.91
2023-04-09T03:23:50.408Z,100248.38
2023-04-09T03:26:18.081Z,100238.34
2023-04-09T03:28:46.157Z,100247.53
2023-04-09T03:31:14.168Z,100249.22
2023-04-09T03:33:42.217Z,100244.19
2023-04-09T03:36:10.128Z,100241.25
2023-04-09T03:38:39.124Z,100242.31
2023-04-09T03:41:07.437Z,100245.88
2023-04-09T03:43:35.247Z,100242.91
2023-04-09T03:46:17.137Z,100238.75
2023-04-09T03:48:45.941Z,100243.97
2023-04-09T03:51:16.870Z,100243.13
2023-04-09T03:53:47.563Z,100246.91
2023-04-09T03:56:14.991Z,100240.66
2023-04-09T03:58:42.553Z,100254.03
2023-04-09T04:01:11.067Z,100254.03
2023-04-09T04:03:39.702Z,100255.31
2023-04-09T04:06:07.544Z,100255.31
2023-04-09T04:08:37.031Z,100257.16
2023-04-09T04:11:05.204Z,100259.69
2023-04-09T04:13:33.347Z,100259.06
2023-04-09T04:16:01.881Z,100264.50
2023-04-09T04:18:29.692Z,100253.84
2023-04-09T04:20:57.715Z,100260.09
2023-04-09T04:23:25.163Z,100258.44
2023-04-09T04:25:53.214Z,100268.28
2023-04-09T04:28:22.840Z,100267.66
2023-04-09T04:30:51.334Z,100270.16
2023-04-09T04:33:19.151Z,100275.84
2023-04-09T04:35:47.757Z,100268.50
2023-04-09T04:38:15.933Z,100271.41
2023-04-09T04:40:43.790Z,100268.09
2023-04-09T04:43:11.332Z,100278.97
2023-04-09T04:45:38.868Z,100278.13
2023-04-09T04:48:06.717Z,100275.41
2023-04-09T04:50:34.121Z,100277.31
2023-04-09T04:53:01.956Z,100280.84
2023-04-09T04:55:30.452Z,100280.03
2023-04-09T04:58:00.179Z,100276.47
2023-04-09T05:00:28.523Z,100278.34
2023-04-09T05:02:59.347Z,100286.53
2023-04-09T05:05:27.187Z,100286.53
2023-04-09T05:07:54.793Z,100290.25
2023-04-09T05:10:22.649Z,100288.59
2023-04-09T05:12:50.251Z,100294.03
2023-04-09T05:15:19.087Z,100291.53
2023-04-09T05:17:46.841Z,100294.25
2023-04-09T05:20:14.510Z,100297.00
2023-04-09T05:22:44.986Z,100294.25
2023-04-09T05:25:16.414Z,100294.25
2023-04-09T05:27:44.218Z,100295.31
2023-04-09T05:30:11.791Z,100293.44
2023-04-09T05:32:39.701Z,100297.19
2023-04-09T05:35:07.968Z,100293.63
2023-04-09T05:37:38.768Z,100297.41
2023-04-09T05:40:07.444Z,100300.94
2023-04-09T05:42:35.139Z,100304.50
2023-04-09T05:45:03.038Z,100296.34
2023-04-09T05:47:32.268Z,100300.94
2023-04-09T05:50:00.274Z,100303.69
2023-04-09T05:52:28.551Z,100302.84
2023-04-09T05:54:56.461Z,100303.69
2023-04-09T05:57:24.275Z,100302.84
2023-04-09T05:59:52.159Z,100306.41
2023-04-09T06:02:20.080Z,100309.34
2023-04-09T06:04:48.037Z,100310.16
2023-04-09T06:07:15.713Z,100309.34
2023-04-09T06:09:46.968Z,100307.66
2023-04-09T06:12:15.096Z,100317.50
2023-04-09T06:14:42.620Z,100312.88
2023-04-09T06:17:10.102Z,100316.66
2023-04-09T06:19:37.965Z,100327.56
2023-04-09T06:22:05.965Z,100317.72
2023-04-09T06:24:33.417Z,100324.84
2023-04-09T06:27:01.191Z,100315.84
2023-04-09T06:29:28.686Z,100323.16
2023-04-09T06:31:56.913Z,100319.56
2023-04-09T06:34:24.637Z,100325.88
2023-04-09T06:36:52.075Z,100322.28
2023-04-09T06:39:19.572Z,100313.31
2023-04-09T06:41:47.573Z,100316.84
2023-04-09T06:44:20.098Z,100315.00
2023-04-09T06:46:47.845Z,100316.66
2023-04-09T06:49:15.437Z,100314.13
2023-04-09T06:51:42.889Z,100324.19
2023-04-09T06:54:11.020Z,100322.09
2023-04-09T06:56:38.489Z,100325.66
2023-04-09T06:59:06.239Z,100332.78
2023-04-09T07:01:35.705Z,100326.28
2023-04-09T07:04:04.293Z,100334.44
2023-04-09T07:06:31.717Z,100341.34
2023-04-09T07:08:59.444Z,100335.91
2023-04-09T07:11:26.940Z,100333.41
2023-04-09T07:13:56.791Z,100340.94
2023-04-09T07:16:24.732Z,100342.59
2023-04-09T07:18:52.222Z,100341.78
2023-04-09T07:21:20.404Z,100342.59
2023-04-09T07:23:48.216Z,100343.44
2023-04-09T07:26:15.676Z,100344.50
2023-04-09T07:28:43.129Z,100351.59
2023-04-09T07:31:11.465Z,100357.25
2023-04-09T07:33:39.038Z,100356.19
2023-04-09T07:36:06.961Z,100350.75
2023-04-09T07:38:35.022Z,100357.84
2023-04-09T07:41:02.599Z,100350.53
2023-04-09T07:43:30.790Z,100354.53
2023-04-09T07:45:58.687Z,100354.72
2023-04-09T07:48:28.130Z,100359.31
2023-04-09T07:50:55.688Z,100353.03
2023-04-09T07:53:23.489Z,100358.50
2023-04-09T07:55:51.807Z,100367.69
2023-04-09T07:58:19.250Z,100360.59
2023-04-09T08:00:47.958Z,100365.19
2023-04-09T08:03:15.923Z,100358.72
2023-04-09T08:05:43.573Z,100362.69
2023-04-09T08:08:12.535Z,100362.69
2023-04-09T08:10:40.423Z,100363.75
2023-04-09T08:13:09.101Z,100357.91
2023-04-09T08:15:37.960Z,100356.41
2023-04-09T08:18:05.758Z,100346.78
2023-04-09T08:20:33.377Z,100351.78
2023-04-09T08:23:00.828Z,100354.91
2023-04-09T08:25:28.643Z,100361.34
2023-04-09T08:27:56.056Z,100364.28
2023-04-09T08:30:23.510Z,100362.78
2023-04-09T08:32:51.355Z,100372.81
2023-04-09T08:35:18.880Z,100369.37
2023-04-09T08:37:46.852Z,100376.69
2023-04-09T08:40:15.993Z,100376.22
2023-04-09T08:42:45.227Z,100380.34
2023-04-09T08:45:13.107Z,100379.06
2023-04-09T08:47:41.738Z,100384.50
2023-04-09T08:50:09.486Z,100384.69
2023-04-09T08:52:36.939Z,100382.97
2023-04-09T08:55:05.183Z,100394.47
2023-04-09T08:57:40.077Z,100397.59
2023-04-09T09:00:08.641Z,100401.16
2023-04-09T09:02:36.362Z,100403.69
2023-04-09T09:05:03.897Z,100408.09
2023-04-09T09:07:32.278Z,100405.38
2023-04-09T09:10:05.608Z,100406.19
2023-04-09T09:12:38.593Z,100400.09
2023-04-09T09:15:30.956Z,100398.44
2023-04-09T09:17:59.781Z,100402.84
2023-04-09T09:20:27.770Z,100404.34
2023-04-09T09:22:55.959Z,100401.81
2023-04-09T09:25:24.920Z,100405.00
2023-04-09T09:27:52.964Z,100405.00
2023-04-09T09:30:25.720Z,100399.75
2023-04-09T09:32:54.824Z,100398.53
2023-04-09T09:35:23.432Z,100399.59
2023-04-09T09:38:06.916Z,100401.06
2023-04-09T09:40:34.612Z,100392.87
2023-04-09T09:43:02.077Z,100395.25
2023-04-09T09:45:29.493Z,100392.09
2023-04-09T09:47:57.289Z,100394.19
2023-04-09T09:50:28.926Z,100390.00
2023-04-09T09:53:03.215Z,100394.81
2023-04-09T09:55:36.111Z,100380.81
2023-04-09T09:58:12.771Z,100389.19
2023-04-09T10:00:40.367Z,100385.03
2023-04-09T10:03:13.925Z,100386.28
2023-04-09T10:05:41.608Z,100390.28
2023-04-09T10:08:09.390Z,100388.00
2023-04-09T10:10:36.972Z,100389.06
2023-04-09T10:13:06.127Z,100392.19
2023-04-09T10:15:33.856Z,100386.16
2023-04-09T10:18:01.953Z,100387.16
2023-04-09T10:20:36.589Z,100393.09
2023-04-09T10:23:06.448Z,100384.50
2023-04-09T10:25:34.198Z,100389.34
2023-04-09T10:28:02.348Z,100396.66
2023-04-09T10:30:36.766Z,100384.31
2023-04-09T10:33:14.319Z,100392.72
2023-04-09T10:35:42.446Z,100382.22
2023-04-09T10:38:10.753Z,100385.38
2023-04-09T10:40:47.747Z,100391.06
2023-04-09T10:43:16.122Z,100390.41
2023-04-09T10:45:43.619Z,100388.97
2023-04-09T10:48:12.982Z,100393.81
2023-04-09T10:50:45.663Z,100387.72
2023-04-09T10:53:26.000Z,100383.09
2023-04-09T10:55:53.984Z,100378.09
2023-04-09T10:58:21.572Z,100381.25
2023-04-09T11:00:50.154Z,100385.03
2023-04-09T11:03:24.937Z,100387.13
2023-04-09T11:05:52.629Z,100386.28
2023-04-09T11:08:22.165Z,100389.22
2023-04-09T11:10:51.905Z,100381.25
2023-04-09T11:13:21.295Z,100387.75
2023-04-09T11:15:48.750Z,100383.37
2023-04-09T11:18:20.506Z,100388.22
2023-04-09T11:20:48.446Z,100383.16
2023-04-09T11:23:16.150Z,100379.37
2023-04-09T11:25:47.915Z,100379.59
2023-04-09T11:28:15.660Z,100380.66
2023-04-09T11:30:43.863Z,100376.44
2023-04-09T11:33:11.337Z,100381.06
2023-04-09T11:35:39.077Z,100374.78
2023-04-09T11:38:09.727Z,100372.25
2023-04-09T11:40:37.668Z,100376.84
2023-04-09T11:43:08.210Z,100374.12
2023-04-09T11:45:35.619Z,100377.31
2023-04-09T11:48:03.046Z,100371.03
2023-04-09T11:50:31.052Z,100369.31
2023-04-09T11:52:58.490Z,100376.66
2023-04-09T11:55:26.909Z,100368.72
2023-04-09T11:57:57.623Z,100370.59
2023-04-09T12:00:25.427Z,100369.78
2023-04-09T12:03:03.627Z,100370.84
2023-04-09T12:05:32.923Z,100370.84
2023-04-09T12:08:05.201Z,100368.53
2023-04-09T12:10:33.835Z,100366.63
2023-04-09T12:13:10.999Z,100366.84
2023-04-09T12:15:41.154Z,100370.59
2023-04-09T12:18:09.929Z,100373.56
2023-04-09T12:20:39.708Z,100373.78
2023-04-09T12:23:07.692Z,100371.88
2023-04-09T12:25:39.782Z,100361.22
2023-04-09T12:28:07.924Z,100361.41
2023-04-09T12:30:36.083Z,100366.03
2023-04-09T12:33:03.954Z,100367.91
2023-04-09T12:35:31.921Z,100371.69
2023-04-09T12:37:59.761Z,100370.03
2023-04-09T12:40:27.451Z,100360.97
2023-04-09T12:42:54.959Z,100373.78
2023-04-09T12:45:22.790Z,100362.03
2023-04-09T12:47:50.372Z,100366.88
2023-04-09T12:50:17.934Z,100366.03
2023-04-09T12:52:45.928Z,100363.50
2023-04-09T12:55:13.655Z,100362.69
2023-04-09T12:57:44.070Z,100362.91
2023-04-09T13:00:12.303Z,100357.69
2023-04-09T13:02:39.924Z,100357.69
2023-04-09T13:05:07.888Z,100354.09
2023-04-09T13:07:35.807Z,100354.31
2023-04-09T13:10:03.437Z,100344.47
2023-04-09T13:12:30.874Z,100349.91
2023-04-09T13:15:01.266Z,100349.09
2023-04-09T13:17:28.613Z,100350.97
2023-04-09T13:19:56.109Z,100341.72
2023-04-09T13:22:24.035Z,100337.38
2023-04-09T13:24:51.527Z,100339.66
2023-04-09T13:27:19.017Z,100338.00
2023-04-09T13:29:46.773Z,100339.06
2023-04-09T13:32:14.532Z,100327.31
2023-04-09T13:34:42.006Z,100333.81
2023-04-09T13:37:09.865Z,100328.34
2023-04-09T13:39:37.293Z,100333.81
2023-04-09T13:42:10.086Z,100328.56
2023-04-09T13:44:42.526Z,100335.06
2023-04-09T13:47:13.382Z,100329.63
2023-04-09T13:49:41.341Z,100332.53
2023-04-09T13:52:09.179Z,100325.44
2023-04-09T13:54:36.782Z,100327.31
2023-04-09T13:57:04.562Z,100330.03
2023-04-09T13:59:32.167Z,100327.53
2023-04-09T14:01:59.723Z,100323.12
2023-04-09T14:04:27.724Z,100322.94
2023-04-09T14:06:55.153Z,100321.28
2023-04-09T14:09:24.052Z,100321.28
2023-04-09T14:11:51.816Z,100318.75
2023-04-09T14:14:19.945Z,100320.41
2023-04-09T14:16:48.355Z,100316.00
2023-04-09T14:19:16.136Z,100312.69
2023-04-09T14:21:43.843Z,100309.13
2023-04-09T14:24:11.280Z,100309.13
2023-04-09T14:26:38.961Z,100310.16
2023-04-09T14:29:06.381Z,100307.66
2023-04-09T14:31:33.843Z,100310.38
2023-04-09T14:34:01.623Z,100302.22
2023-04-09T14:36:29.051Z,100299.50
2023-04-09T14:38:57.854Z,100305.97
2023-04-09T14:41:26.306Z,100305.97
2023-04-09T14:43:53.722Z,100301.59
2023-04-09T14:46:22.173Z,100305.34
2023-04-09T14:48:50.091Z,100299.91
2023-04-09T14:51:17.713Z,100298.22
2023-04-09T14:53:45.247Z,100297.19
2023-04-09T14:56:13.000Z,100297.81
2023-04-09T14:58:40.726Z,100297.78
2023-04-09T15:01:08.317Z,100296.34
2023-04-09T15:03:36.275Z,100293.00
2023-04-09T15:06:04.065Z,100298.00
2023-04-09T15:08:31.543Z,100299.00
2023-04-09T15:10:59.442Z,100293.53
2023-04-09T15:13:26.886Z,100294.53
2023-04-09T15:15:54.488Z,100291.81
2023-04-09T15:18:22.249Z,100285.47
2023-04-09T15:20:50.547Z,100285.59
2023-04-09T15:23:18.018Z,100283.84
2023-04-09T15:25:48.338Z,100287.75
2023-04-09T15:28:15.894Z,100280.78
2023-04-09T15:30:43.226Z,100287.16
2023-04-09T15:33:11.133Z,100281.03
2023-04-09T15:35:38.641Z,100281.00
2023-04-09T15:38:06.161Z,100282.41
2023-04-09T15:40:34.122Z,100278.78
2023-04-09T15:43:01.639Z,100286.44
2023-04-09T15:45:29.147Z,100282.38
2023-04-09T15:47:56.877Z,100284.00
2023-04-09T15:50:24.669Z,100285.81
2023-04-09T15:52:52.124Z,100288.06
2023-04-09T15:55:19.987Z,100284.41
2023-04-09T15:57:47.493Z,100278.66
2023-04-09T16:00:15.615Z,100285.94
2023-04-09T16:02:43.565Z,100278.50
2023-04-09T16:05:11.241Z,100278.41
2023-04-09T16:07:39.737Z,100283.81
2023-04-09T16:10:07.918Z,100283.72
2023-04-09T16:12:35.585Z,100279.25
2023-04-09T16:15:03.068Z,100275.59
2023-04-09T16:17:36.501Z,100279.34
2023-04-09T16:20:08.551Z,100282.47
2023-04-09T16:22:36.527Z,100278.41
2023-04-09T16:25:04.082Z,100281.75
2023-04-09T16:27:31.694Z,100277.34
2023-04-09T16:29:59.444Z,100286.41
2023-04-09T16:32:27.373Z,100284.72
2023-04-09T16:34:56.084Z,100279.47
2023-04-09T16:37:23.915Z,100287.94
2023-04-09T16:39:51.373Z,100284.56
2023-04-09T16:42:18.932Z,100292.38
2023-04-09T16:44:46.839Z,100290.09
2023-04-09T16:47:14.292Z,100291.37
2023-04-09T16:49:41.722Z,100294.59
2023-04-09T16:52:09.433Z,100288.97
2023-04-09T16:54:36.894Z,100296.56
2023-04-09T16:57:04.363Z,100287.16
2023-04-09T16:59:32.453Z,100290.56
2023-04-09T17:01:59.976Z,100287.47
2023-04-09T17:04:27.673Z,100287.09
2023-04-09T17:06:55.576Z,100294.31
2023-04-09T17:09:23.007Z,100292.03
2023-04-09T17:11:52.968Z,100289.72
2023-04-09T17:14:20.768Z,100286.84
2023-04-09T17:16:48.672Z,100292.56
2023-04-09T17:19:16.151Z,100295.72
2023-04-09T17:21:43.891Z,100300.78
2023-04-09T17:24:11.328Z,100291.41
2023-04-09T17:26:39.201Z,100294.34
2023-04-09T17:29:07.002Z,100296.06
2023-04-09T17:31:34.574Z,100292.94
2023-04-09T17:34:02.020Z,100301.59
2023-04-09T17:36:29.812Z,100294.69
2023-04-09T17:38:57.378Z,100303.31
2023-04-09T17:41:25.163Z,100302.94
2023-04-09T17:43:52.818Z,100306.13
2023-04-09T17:46:20.313Z,100310.94
2023-04-09T17:48:48.057Z,100312.84
2023-04-09T17:51:18.798Z,100309.25
2023-04-09T17:53:47.337Z,100309.41
2023-04-09T17:56:17.903Z,100315.41
2023-04-09T17:58:46.530Z,100319.41
2023-04-09T18:01:14.090Z,100318.00
2023-04-09T18:03:48.516Z,100321.75
2023-04-09T18:06:17.409Z,100322.50
2023-04-09T18:08:45.212Z,100330.41
2023-04-09T18:11:14.128Z,100331.78
2023-04-09T18:13:41.749Z,100325.41
2023-04-09T18:16:12.741Z,100327.44
2023-04-09T18:18:40.418Z,100328.66
2023-04-09T18:21:07.904Z,100336.41
2023-04-09T18:23:35.627Z,100331.34
2023-04-09T18:26:03.080Z,100338.47
2023-04-09T18:28:30.711Z,100337.16
2023-04-09T18:30:58.920Z,100340.50
2023-04-09T18:33:27.112Z,100336.75
2023-04-09T18:35:54.716Z,100338.66
2023-04-09T18:38:24.434Z,100351.44
2023-04-09T18:40:51.908Z,100347.88
2023-04-09T18:43:19.584Z,100354.38
2023-04-09T18:45:47.342Z,100352.72
2023-04-09T18:48:14.831Z,100355.06
2023-04-09T18:50:42.375Z,100360.78
2023-04-09T18:53:10.510Z,100363.75
2023-04-09T18:55:38.581Z,100355.75
2023-04-09T18:58:12.521Z,100354.94
2023-04-09T19:00:40.681Z,100359.81
2023-04-09T19:03:08.841Z,100361.31
2023-04-09T19:05:36.826Z,100362.59
2023-04-09T19:08:05.589Z,100353.78
2023-04-09T19:10:33.411Z,100358.03
2023-04-09T19:13:00.850Z,100366.47
2023-04-09T19:15:29.383Z,100366.91
2023-04-09T19:17:57.131Z,100366.53
2023-04-09T19:20:24.640Z,100372.47
2023-04-09T19:22:57.325Z,100361.97
2023-04-09T19:25:25.090Z,100363.28
2023-04-09T19:27:54.363Z,100362.66
2023-04-09T19:30:21.941Z,100365.63
2023-04-09T19:32:49.441Z,100366.06
2023-04-09T19:35:17.672Z,100364.62
2023-04-09T19:37:45.646Z,100360.44
2023-04-09T19:40:15.877Z,100365.31
2023-04-09T19:42:44.009Z,100371.19
2023-04-09T19:45:11.932Z,100371.44
2023-04-09T19:47:39.443Z,100367.25
2023-04-09T19:50:07.461Z,100374.22
2023-04-09T19:52:34.926Z,100366.44
2023-04-09T19:55:04.366Z,100370.22
2023-04-09T19:57:32.210Z,100365.22
2023-04-09T19:59:59.619Z,100369.00
2023-04-09T20:02:27.261Z,100365.66
2023-04-09T20:04:55.148Z,100374.91
2023-04-09T20:07:22.808Z,100366.31
2023-04-09T20:09:50.613Z,100370.13
2023-04-09T20:12:19.317Z,100374.94
2023-04-09T20:14:47.140Z,100376.03
2023-04-09T20:17:14.632Z,100367.00
2023-04-09T20:19:42.339Z,100377.31
2023-04-09T20:22:09.931Z,100372.87
2023-04-09T20:24:38.359Z,100379.19
2023-04-09T20:27:06.565Z,100374.19
2023-04-09T20:29:34.037Z,100374.41
2023-04-09T20:32:02.192Z,100369.16
2023-04-09T20:34:30.009Z,100365.00
2023-04-09T20:36:57.644Z,100367.09
2023-04-09T20:39:26.802Z,100374.69
2023-04-09T20:41:56.560Z,100370.50
2023-04-09T20:44:24.928Z,100370.50
2023-04-09T20:46:52.358Z,100364.44
2023-04-09T20:49:20.272Z,100365.94
2023-04-09T20:51:47.759Z,100365.09
2023-04-09T20:54:17.984Z,100375.19
2023-04-09T20:56:45.733Z,100376.00
2023-04-09T20:59:14.988Z,100375.59
2023-04-09T21:01:42.615Z,100368.47
2023-04-09T21:04:10.604Z,100376.88
2023-04-09T21:06:38.149Z,100379.59
2023-04-09T21:09:05.716Z,100374.38
2023-04-09T21:11:33.418Z,100369.34
2023-04-09T21:14:01.140Z,100368.50
2023-04-09T21:16:29.904Z,100382.38
2023-04-09T21:18:57.762Z,100371.69
2023-04-09T21:21:27.524Z,100366.25
2023-04-09T21:23:55.002Z,100381.16
2023-04-09T21:26:22.765Z,100372.97
2023-04-09T21:28:50.975Z,100367.72
2023-04-09T21:31:18.483Z,100374.25
2023-04-09T21:33:46.374Z,100374.44
2023-04-09T21:36:13.886Z,100362.94
2023-04-09T21:38:41.399Z,100364.19
2023-04-09T21:41:09.149Z,100365.25
2023-04-09T21:43:38.535Z,100369.03
2023-04-09T21:46:06.318Z,100366.53
2023-04-09T21:48:34.117Z,100366.53
2023-04-09T21:51:01.597Z,100365.06
2023-04-09T21:53:30.911Z,100366.13
2023-04-09T21:55:58.715Z,100367.19
2023-04-09T21:58:26.221Z,100369.91
2023-04-09T22:00:53.716Z,100369.25
2023-04-09T22:03:22.517Z,100368.44
2023-04-09T22:05:50.233Z,100372.41
2023-04-09T22:08:18.442Z,100368.84
2023-04-09T22:10:46.404Z,100369.91
2023-04-09T22:13:13.870Z,100371.81
2023-04-09T22:15:42.148Z,100372.87
2023-04-09T22:18:09.906Z,100371.22
2023-04-09T22:20:37.482Z,100377.69
2023-04-09T22:23:06.018Z,100370.56
2023-04-09T22:25:35.119Z,100378.97
2023-04-09T22:28:02.626Z,100373.75
2023-04-09T22:30:30.158Z,100376.47
2023-04-09T22:32:57.945Z,100373.75
2023-04-09T22:35:25.437Z,100373.13
2023-04-09T22:37:52.894Z,100378.81
2023-04-09T22:40:20.642Z,100373.34
2023-04-09T22:42:48.324Z,100377.97
2023-04-09T22:45:16.077Z,100372.72
2023-04-09T22:47:44.245Z,100378.38
2023-04-09T22:50:13.468Z,100377.31
2023-04-09T22:52:40.976Z,100377.16
2023-04-09T22:55:10.204Z,100373.19
2023-04-09T22:57:38.385Z,100380.75
2023-04-09T23:00:06.537Z,100383.47
2023-04-09T23:02:34.428Z,100376.56
2023-04-09T23:05:02.246Z,100385.78
2023-04-09T23:07:29.818Z,100379.72
2023-04-09T23:09:57.538Z,100375.94
2023-04-09T23:12:24.942Z,100378.03
2023-04-09T23:14:53.431Z,100380.97
2023-04-09T23:17:22.716Z,100373.88
2023-04-09T23:19:52.375Z,100376.78
2023-04-09T23:22:19.849Z,100371.34
2023-04-09T23:24:47.636Z,100375.75
2023-04-09T23:27:15.108Z,100375.13
2023-04-09T23:29:42.536Z,100375.34
2023-04-09T23:32:10.673Z,100373.69
2023-04-09T23:34:38.126Z,100374.50
2023-04-09T23:37:05.730Z,100373.03
2023-04-09T23:39:33.479Z,100371.38
2023-04-09T23:42:02.321Z,100374.09
2023-04-09T23:44:29.795Z,100369.47
2023-04-09T23:46:58.256Z,100369.72
2023-04-09T23:49:29.156Z,100371.59
2023-04-09T23:51:56.853Z,100368.87
2023-04-09T23:54:24.311Z,100370.75
2023-04-09T23:56:51.774Z,100363.63
2023-04-09T23:59:19.515Z,100366.56
